sensor_id;sensor_type;location;lat;lon;timestamp;temperature;humidity
7046;DHT22;3564;53.326;10.356;2022-09-09T00:04:31;18.10;99.90
7046;DHT22;3564;53.326;10.356;2022-09-09T00:07:18;18.00;99.90
7046;DHT22;3564;53.326;10.356;2022-09-09T00:16:08;18.00;99.90
7046;DHT22;3564;53.326;10.356;2022-09-09T00:21:34;18.00;99.90
7046;DHT22;3564;53.326;10.356;2022-09-09T00:24:23;18.00;99.90
7046;DHT22;3564;53.326;10.356;2022-09-09T00:26:55;18.00;99.90
7046;DHT22;3564;53.326;10.356;2022-09-09T00:29:36;18.00;99.90
7046;DHT22;3564;53.326;10.356;2022-09-09T00:32:17;18.00;99.90
7046;DHT22;3564;53.326;10.356;2022-09-09T00:34:51;18.00;99.90
7046;DHT22;3564;53.326;10.356;2022-09-09T00:37:19;17.90;99.90
7046;DHT22;3564;53.326;10.356;2022-09-09T00:39:47;18.00;99.90
7046;DHT22;3564;53.326;10.356;2022-09-09T00:45:45;18.00;99.90
7046;DHT22;3564;53.326;10.356;2022-09-09T00:48:15;17.90;99.90
7046;DHT22;3564;53.326;10.356;2022-09-09T00:50:59;17.90;99.90
7046;DHT22;3564;53.326;10.356;2022-09-09T00:56:38;17.90;99.90
7046;DHT22;3564;53.326;10.356;2022-09-09T01:01:36;17.80;99.90
7046;DHT22;3564;53.326;10.356;2022-09-09T01:04:08;17.80;99.90
7046;DHT22;3564;53.326;10.356;2022-09-09T01:06:37;17.80;99.90
7046;DHT22;3564;53.326;10.356;2022-09-09T01:17:28;17.70;99.90
7046;DHT22;3564;53.326;10.356;2022-09-09T01:20:14;17.80;99.90
7046;DHT22;3564;53.326;10.356;2022-09-09T01:26:05;17.60;99.90
7046;DHT22;3564;53.326;10.356;2022-09-09T01:28:34;17.60;99.90
7046;DHT22;3564;53.326;10.356;2022-09-09T01:31:04;17.60;99.90
7046;DHT22;3564;53.326;10.356;2022-09-09T01:33:31;17.60;99.90
7046;DHT22;3564;53.326;10.356;2022-09-09T01:36:10;17.60;99.90
7046;DHT22;3564;53.326;10.356;2022-09-09T01:38:37;17.50;99.90
7046;DHT22;3564;53.326;10.356;2022-09-09T01:41:03;17.50;99.90
7046;DHT22;3564;53.326;10.356;2022-09-09T01:43:30;17.50;99.90
7046;DHT22;3564;53.326;10.356;2022-09-09T01:45:58;17.50;99.90
7046;DHT22;3564;53.326;10.356;2022-09-09T01:48:25;17.50;99.90
7046;DHT22;3564;53.326;10.356;2022-09-09T01:50:51;17.50;99.90
7046;DHT22;3564;53.326;10.356;2022-09-09T01:53:18;17.40;99.90
7046;DHT22;3564;53.326;10.356;2022-09-09T01:58:28;17.40;99.90
7046;DHT22;3564;53.326;10.356;2022-09-09T02:03:35;17.30;99.90
7046;DHT22;3564;53.326;10.356;2022-09-09T02:06:14;17.30;99.90
7046;DHT22;3564;53.326;10.356;2022-09-09T02:08:53;17.20;99.90
7046;DHT22;3564;53.326;10.356;2022-09-09T02:11:22;17.20;99.90
7046;DHT22;3564;53.326;10.356;2022-09-09T02:13:53;17.20;99.90
7046;DHT22;3564;53.326;10.356;2022-09-09T02:16:23;17.20;99.90
7046;DHT22;3564;53.326;10.356;2022-09-09T02:19:15;17.20;99.90
7046;DHT22;3564;53.326;10.356;2022-09-09T02:21:53;17.20;99.90
7046;DHT22;3564;53.326;10.356;2022-09-09T02:24:20;17.20;99.90
7046;DHT22;3564;53.326;10.356;2022-09-09T02:26:52;17.30;99.90
7046;DHT22;3564;53.326;10.356;2022-09-09T02:29:23;17.30;99.90
7046;DHT22;3564;53.326;10.356;2022-09-09T02:31:53;17.30;99.90
7046;DHT22;3564;53.326;10.356;2022-09-09T02:34:21;17.30;99.90
7046;DHT22;3564;53.326;10.356;2022-09-09T02:36:50;17.40;99.90
7046;DHT22;3564;53.326;10.356;2022-09-09T02:39:19;17.40;99.90
7046;DHT22;3564;53.326;10.356;2022-09-09T02:41:44;17.40;99.90
7046;DHT22;3564;53.326;10.356;2022-09-09T02:44:15;17.40;99.90
7046;DHT22;3564;53.326;10.356;2022-09-09T02:47:20;17.30;99.90
7046;DHT22;3564;53.326;10.356;2022-09-09T02:55:45;17.30;99.90
7046;DHT22;3564;53.326;10.356;2022-09-09T02:58:15;17.30;99.90
7046;DHT22;3564;53.326;10.356;2022-09-09T03:01:02;17.40;99.90
7046;DHT22;3564;53.326;10.356;2022-09-09T03:03:28;17.40;99.90
7046;DHT22;3564;53.326;10.356;2022-09-09T03:05:55;17.40;99.90
7046;DHT22;3564;53.326;10.356;2022-09-09T03:08:22;17.40;99.90
7046;DHT22;3564;53.326;10.356;2022-09-09T03:10:47;17.40;99.90
7046;DHT22;3564;53.326;10.356;2022-09-09T03:13:13;17.40;99.90
7046;DHT22;3564;53.326;10.356;2022-09-09T03:15:41;17.40;99.90
7046;DHT22;3564;53.326;10.356;2022-09-09T03:18:06;17.40;99.90
7046;DHT22;3564;53.326;10.356;2022-09-09T03:20:32;17.40;99.90
7046;DHT22;3564;53.326;10.356;2022-09-09T03:22:59;17.40;99.90
7046;DHT22;3564;53.326;10.356;2022-09-09T03:25:24;17.40;99.90
7046;DHT22;3564;53.326;10.356;2022-09-09T03:27:53;17.30;99.90
7046;DHT22;3564;53.326;10.356;2022-09-09T03:30:22;17.30;99.90
7046;DHT22;3564;53.326;10.356;2022-09-09T03:32:48;17.30;99.90
7046;DHT22;3564;53.326;10.356;2022-09-09T03:35:14;17.20;99.90
7046;DHT22;3564;53.326;10.356;2022-09-09T03:37:41;17.20;99.90
7046;DHT22;3564;53.326;10.356;2022-09-09T03:40:07;17.20;99.90
7046;DHT22;3564;53.326;10.356;2022-09-09T03:42:33;17.10;99.90
7046;DHT22;3564;53.326;10.356;2022-09-09T03:44:59;17.10;99.90
7046;DHT22;3564;53.326;10.356;2022-09-09T03:47:24;17.10;99.90
7046;DHT22;3564;53.326;10.356;2022-09-09T03:49:50;17.10;99.90
7046;DHT22;3564;53.326;10.356;2022-09-09T03:52:16;17.10;99.90
7046;DHT22;3564;53.326;10.356;2022-09-09T03:54:41;17.10;99.90
7046;DHT22;3564;53.326;10.356;2022-09-09T03:57:10;17.10;99.90
7046;DHT22;3564;53.326;10.356;2022-09-09T03:59:36;17.10;99.90
7046;DHT22;3564;53.326;10.356;2022-09-09T04:02:03;17.10;99.90
7046;DHT22;3564;53.326;10.356;2022-09-09T04:04:29;17.10;99.90
7046;DHT22;3564;53.326;10.356;2022-09-09T04:06:54;17.10;99.90
7046;DHT22;3564;53.326;10.356;2022-09-09T04:09:20;17.10;99.90
7046;DHT22;3564;53.326;10.356;2022-09-09T04:11:46;17.10;99.90
7046;DHT22;3564;53.326;10.356;2022-09-09T04:14:12;17.10;99.90
7046;DHT22;3564;53.326;10.356;2022-09-09T04:16:38;17.10;99.90
7046;DHT22;3564;53.326;10.356;2022-09-09T04:19:04;17.10;99.90
7046;DHT22;3564;53.326;10.356;2022-09-09T04:21:31;17.10;99.90
7046;DHT22;3564;53.326;10.356;2022-09-09T04:23:57;17.10;99.90
7046;DHT22;3564;53.326;10.356;2022-09-09T04:26:22;17.10;99.90
7046;DHT22;3564;53.326;10.356;2022-09-09T04:28:48;17.20;99.90
7046;DHT22;3564;53.326;10.356;2022-09-09T04:31:17;17.20;99.90
7046;DHT22;3564;53.326;10.356;2022-09-09T04:33:45;17.20;99.90
7046;DHT22;3564;53.326;10.356;2022-09-09T04:36:12;17.20;99.90
7046;DHT22;3564;53.326;10.356;2022-09-09T04:38:38;17.20;99.90
7046;DHT22;3564;53.326;10.356;2022-09-09T04:41:05;17.20;99.90
7046;DHT22;3564;53.326;10.356;2022-09-09T04:43:31;17.20;99.90
7046;DHT22;3564;53.326;10.356;2022-09-09T04:45:56;17.20;99.90
7046;DHT22;3564;53.326;10.356;2022-09-09T04:48:22;17.20;99.90
7046;DHT22;3564;53.326;10.356;2022-09-09T04:53:25;17.20;99.90
7046;DHT22;3564;53.326;10.356;2022-09-09T04:55:52;17.30;99.90
7046;DHT22;3564;53.326;10.356;2022-09-09T04:58:18;17.30;99.90
7046;DHT22;3564;53.326;10.356;2022-09-09T05:00:43;17.30;99.90
7046;DHT22;3564;53.326;10.356;2022-09-09T05:03:09;17.30;99.90
7046;DHT22;3564;53.326;10.356;2022-09-09T05:05:35;17.40;99.90
7046;DHT22;3564;53.326;10.356;2022-09-09T05:08:06;17.30;99.90
7046;DHT22;3564;53.326;10.356;2022-09-09T05:10:33;17.40;99.90
7046;DHT22;3564;53.326;10.356;2022-09-09T05:12:59;17.40;99.90
7046;DHT22;3564;53.326;10.356;2022-09-09T05:15:25;17.40;99.90
7046;DHT22;3564;53.326;10.356;2022-09-09T05:17:51;17.40;99.90
7046;DHT22;3564;53.326;10.356;2022-09-09T05:20:18;17.40;99.90
7046;DHT22;3564;53.326;10.356;2022-09-09T05:22:44;17.50;99.90
7046;DHT22;3564;53.326;10.356;2022-09-09T05:25:09;17.50;99.90
7046;DHT22;3564;53.326;10.356;2022-09-09T05:27:35;17.50;99.90
7046;DHT22;3564;53.326;10.356;2022-09-09T05:30:00;17.50;99.90
7046;DHT22;3564;53.326;10.356;2022-09-09T05:32:26;17.50;99.90
7046;DHT22;3564;53.326;10.356;2022-09-09T05:34:53;17.50;99.90
7046;DHT22;3564;53.326;10.356;2022-09-09T05:37:19;17.50;99.90
7046;DHT22;3564;53.326;10.356;2022-09-09T05:39:45;17.50;99.90
7046;DHT22;3564;53.326;10.356;2022-09-09T05:42:10;17.50;99.90
7046;DHT22;3564;53.326;10.356;2022-09-09T05:44:36;17.60;99.90
7046;DHT22;3564;53.326;10.356;2022-09-09T05:47:02;17.60;99.90
7046;DHT22;3564;53.326;10.356;2022-09-09T05:49:28;17.60;99.90
7046;DHT22;3564;53.326;10.356;2022-09-09T05:51:53;17.60;99.90
7046;DHT22;3564;53.326;10.356;2022-09-09T05:54:19;17.60;99.90
7046;DHT22;3564;53.326;10.356;2022-09-09T05:56:44;17.70;99.90
7046;DHT22;3564;53.326;10.356;2022-09-09T05:59:10;17.70;99.90
7046;DHT22;3564;53.326;10.356;2022-09-09T06:01:37;17.70;99.90
7046;DHT22;3564;53.326;10.356;2022-09-09T06:04:06;17.70;99.90
7046;DHT22;3564;53.326;10.356;2022-09-09T06:06:33;17.80;99.90
7046;DHT22;3564;53.326;10.356;2022-09-09T06:09:03;17.80;99.90
7046;DHT22;3564;53.326;10.356;2022-09-09T06:11:32;17.80;99.90
7046;DHT22;3564;53.326;10.356;2022-09-09T06:13:58;17.80;99.90
7046;DHT22;3564;53.326;10.356;2022-09-09T06:16:26;17.80;99.90
7046;DHT22;3564;53.326;10.356;2022-09-09T06:18:55;17.80;99.90
7046;DHT22;3564;53.326;10.356;2022-09-09T06:21:22;17.70;99.90
7046;DHT22;3564;53.326;10.356;2022-09-09T06:23:49;17.70;99.90
7046;DHT22;3564;53.326;10.356;2022-09-09T06:26:19;17.70;99.90
7046;DHT22;3564;53.326;10.356;2022-09-09T06:28:47;17.60;99.90
7046;DHT22;3564;53.326;10.356;2022-09-09T06:31:18;17.60;99.90
7046;DHT22;3564;53.326;10.356;2022-09-09T06:33:48;17.60;99.90
7046;DHT22;3564;53.326;10.356;2022-09-09T06:36:20;17.60;99.90
7046;DHT22;3564;53.326;10.356;2022-09-09T06:38:46;17.70;99.90
7046;DHT22;3564;53.326;10.356;2022-09-09T06:41:15;17.70;99.90
7046;DHT22;3564;53.326;10.356;2022-09-09T06:43:41;17.80;99.90
7046;DHT22;3564;53.326;10.356;2022-09-09T06:46:10;17.80;99.90
7046;DHT22;3564;53.326;10.356;2022-09-09T06:48:36;17.90;99.90
7046;DHT22;3564;53.326;10.356;2022-09-09T06:53:30;18.00;99.90
7046;DHT22;3564;53.326;10.356;2022-09-09T06:56:18;18.00;99.90
7046;DHT22;3564;53.326;10.356;2022-09-09T06:58:44;18.10;99.90
7046;DHT22;3564;53.326;10.356;2022-09-09T07:01:12;18.20;99.90
7046;DHT22;3564;53.326;10.356;2022-09-09T07:03:56;18.20;99.90
7046;DHT22;3564;53.326;10.356;2022-09-09T07:06:28;18.30;99.90
7046;DHT22;3564;53.326;10.356;2022-09-09T07:08:58;18.30;99.90
7046;DHT22;3564;53.326;10.356;2022-09-09T07:11:28;18.30;99.90
7046;DHT22;3564;53.326;10.356;2022-09-09T07:13:54;18.30;99.90
7046;DHT22;3564;53.326;10.356;2022-09-09T07:16:22;18.40;99.90
7046;DHT22;3564;53.326;10.356;2022-09-09T07:18:51;18.40;99.90
7046;DHT22;3564;53.326;10.356;2022-09-09T07:21:17;18.50;99.90
7046;DHT22;3564;53.326;10.356;2022-09-09T07:23:43;18.50;99.90
7046;DHT22;3564;53.326;10.356;2022-09-09T07:26:14;18.50;99.90
7046;DHT22;3564;53.326;10.356;2022-09-09T07:28:41;18.50;99.90
7046;DHT22;3564;53.326;10.356;2022-09-09T07:31:12;18.60;99.90
7046;DHT22;3564;53.326;10.356;2022-09-09T07:33:40;18.60;99.90
7046;DHT22;3564;53.326;10.356;2022-09-09T07:38:48;18.60;99.90
7046;DHT22;3564;53.326;10.356;2022-09-09T07:41:16;18.50;99.90
7046;DHT22;3564;53.326;10.356;2022-09-09T07:43:44;18.50;99.90
7046;DHT22;3564;53.326;10.356;2022-09-09T07:46:11;18.50;99.90
7046;DHT22;3564;53.326;10.356;2022-09-09T07:48:38;18.50;99.90
7046;DHT22;3564;53.326;10.356;2022-09-09T07:51:09;18.50;99.90
7046;DHT22;3564;53.326;10.356;2022-09-09T07:53:45;18.60;99.90
7046;DHT22;3564;53.326;10.356;2022-09-09T07:56:14;18.70;99.90
7046;DHT22;3564;53.326;10.356;2022-09-09T07:58:40;18.70;99.90
7046;DHT22;3564;53.326;10.356;2022-09-09T08:01:11;18.80;99.90
7046;DHT22;3564;53.326;10.356;2022-09-09T08:03:37;18.90;99.90
7046;DHT22;3564;53.326;10.356;2022-09-09T08:06:05;18.90;99.90
7046;DHT22;3564;53.326;10.356;2022-09-09T08:08:33;19.00;99.90
7046;DHT22;3564;53.326;10.356;2022-09-09T08:13:29;19.10;99.90
7046;DHT22;3564;53.326;10.356;2022-09-09T08:16:04;19.20;99.90
7046;DHT22;3564;53.326;10.356;2022-09-09T08:18:29;19.30;99.90
7046;DHT22;3564;53.326;10.356;2022-09-09T08:20:55;19.30;99.90
7046;DHT22;3564;53.326;10.356;2022-09-09T08:23:20;19.40;99.90
7046;DHT22;3564;53.326;10.356;2022-09-09T08:25:46;19.40;99.90
7046;DHT22;3564;53.326;10.356;2022-09-09T08:28:14;19.50;99.90
7046;DHT22;3564;53.326;10.356;2022-09-09T08:30:39;19.50;99.90
7046;DHT22;3564;53.326;10.356;2022-09-09T08:33:05;19.60;99.90
7046;DHT22;3564;53.326;10.356;2022-09-09T08:35:30;19.70;99.90
7046;DHT22;3564;53.326;10.356;2022-09-09T08:37:58;19.60;99.90
7046;DHT22;3564;53.326;10.356;2022-09-09T08:40:28;19.70;99.90
7046;DHT22;3564;53.326;10.356;2022-09-09T08:42:57;19.70;99.90
7046;DHT22;3564;53.326;10.356;2022-09-09T08:45:33;19.80;99.90
7046;DHT22;3564;53.326;10.356;2022-09-09T08:48:28;19.60;99.90
7046;DHT22;3564;53.326;10.356;2022-09-09T08:50:57;19.70;99.90
7046;DHT22;3564;53.326;10.356;2022-09-09T08:53:29;19.70;99.90
7046;DHT22;3564;53.326;10.356;2022-09-09T08:56:02;19.80;99.90
7046;DHT22;3564;53.326;10.356;2022-09-09T08:58:33;19.90;99.90
7046;DHT22;3564;53.326;10.356;2022-09-09T09:03:48;20.10;99.90
7046;DHT22;3564;53.326;10.356;2022-09-09T09:11:25;20.20;99.90
7046;DHT22;3564;53.326;10.356;2022-09-09T09:14:07;20.30;99.90
7046;DHT22;3564;53.326;10.356;2022-09-09T09:19:39;20.40;99.90
7046;DHT22;3564;53.326;10.356;2022-09-09T09:22:22;20.50;99.90
7046;DHT22;3564;53.326;10.356;2022-09-09T09:27:45;20.50;99.90
7046;DHT22;3564;53.326;10.356;2022-09-09T09:30:26;20.60;99.90
7046;DHT22;3564;53.326;10.356;2022-09-09T09:33:00;20.60;99.90
7046;DHT22;3564;53.326;10.356;2022-09-09T09:35:26;20.60;99.90
7046;DHT22;3564;53.326;10.356;2022-09-09T09:37:52;20.70;99.90
7046;DHT22;3564;53.326;10.356;2022-09-09T09:40:21;20.70;99.90
7046;DHT22;3564;53.326;10.356;2022-09-09T09:42:55;20.70;99.90
7046;DHT22;3564;53.326;10.356;2022-09-09T09:45:47;20.80;99.90
7046;DHT22;3564;53.326;10.356;2022-09-09T09:48:14;20.70;99.90
7046;DHT22;3564;53.326;10.356;2022-09-09T09:50:54;20.70;99.90
7046;DHT22;3564;53.326;10.356;2022-09-09T09:53:31;20.80;99.90
7046;DHT22;3564;53.326;10.356;2022-09-09T09:56:03;20.90;99.90
7046;DHT22;3564;53.326;10.356;2022-09-09T10:01:26;21.00;99.90
7046;DHT22;3564;53.326;10.356;2022-09-09T10:03:59;21.00;99.90
7046;DHT22;3564;53.326;10.356;2022-09-09T10:06:33;20.90;99.90
7046;DHT22;3564;53.326;10.356;2022-09-09T10:09:01;21.00;99.90
7046;DHT22;3564;53.326;10.356;2022-09-09T10:11:55;21.00;99.90
7046;DHT22;3564;53.326;10.356;2022-09-09T10:14:31;21.00;99.90
7046;DHT22;3564;53.326;10.356;2022-09-09T10:17:14;21.10;99.90
7046;DHT22;3564;53.326;10.356;2022-09-09T10:20:16;21.10;99.90
7046;DHT22;3564;53.326;10.356;2022-09-09T10:22:49;21.20;99.90
7046;DHT22;3564;53.326;10.356;2022-09-09T10:25:43;21.20;99.90
7046;DHT22;3564;53.326;10.356;2022-09-09T10:31:16;21.40;99.90
7046;DHT22;3564;53.326;10.356;2022-09-09T10:36:47;21.50;99.90
7046;DHT22;3564;53.326;10.356;2022-09-09T10:39:37;21.60;99.90
7046;DHT22;3564;53.326;10.356;2022-09-09T10:42:13;21.60;99.90
7046;DHT22;3564;53.326;10.356;2022-09-09T10:48:23;21.80;99.90
7046;DHT22;3564;53.326;10.356;2022-09-09T10:54:13;21.90;99.90
7046;DHT22;3564;53.326;10.356;2022-09-09T10:56:49;21.90;99.90
7046;DHT22;3564;53.326;10.356;2022-09-09T10:59:24;22.10;99.90
7046;DHT22;3564;53.326;10.356;2022-09-09T11:02:03;22.20;99.90
7046;DHT22;3564;53.326;10.356;2022-09-09T11:04:48;22.30;99.90
7046;DHT22;3564;53.326;10.356;2022-09-09T11:07:44;22.20;99.90
7046;DHT22;3564;53.326;10.356;2022-09-09T11:13:20;22.50;99.90
7046;DHT22;3564;53.326;10.356;2022-09-09T11:15:53;22.60;99.90
7046;DHT22;3564;53.326;10.356;2022-09-09T11:18:23;22.70;99.90
7046;DHT22;3564;53.326;10.356;2022-09-09T11:20:52;22.70;99.90
7046;DHT22;3564;53.326;10.356;2022-09-09T11:23:53;22.80;99.90
7046;DHT22;3564;53.326;10.356;2022-09-09T11:26:45;22.90;99.90
7046;DHT22;3564;53.326;10.356;2022-09-09T11:38:02;22.80;99.80
7046;DHT22;3564;53.326;10.356;2022-09-09T11:40:30;22.80;99.90
7046;DHT22;3564;53.326;10.356;2022-09-09T11:43:25;22.80;99.90
7046;DHT22;3564;53.326;10.356;2022-09-09T11:45:57;22.80;99.90
7046;DHT22;3564;53.326;10.356;2022-09-09T11:48:38;22.70;99.90
7046;DHT22;3564;53.326;10.356;2022-09-09T11:51:09;22.60;99.90
7046;DHT22;3564;53.326;10.356;2022-09-09T11:53:56;22.60;99.90
7046;DHT22;3564;53.326;10.356;2022-09-09T11:56:43;22.60;99.90
7046;DHT22;3564;53.326;10.356;2022-09-09T11:59:32;22.50;99.90
7046;DHT22;3564;53.326;10.356;2022-09-09T12:01:59;22.40;99.90
7046;DHT22;3564;53.326;10.356;2022-09-09T12:04:35;22.30;99.90
7046;DHT22;3564;53.326;10.356;2022-09-09T12:07:45;22.20;99.90
7046;DHT22;3564;53.326;10.356;2022-09-09T12:12:37;22.00;99.90
7046;DHT22;3564;53.326;10.356;2022-09-09T12:15:19;22.00;99.90
7046;DHT22;3564;53.326;10.356;2022-09-09T12:17:51;22.00;99.90
7046;DHT22;3564;53.326;10.356;2022-09-09T12:20:23;22.00;99.90
7046;DHT22;3564;53.326;10.356;2022-09-09T12:25:57;22.10;99.90
7046;DHT22;3564;53.326;10.356;2022-09-09T12:33:50;22.20;99.90
7046;DHT22;3564;53.326;10.356;2022-09-09T12:36:27;22.20;99.90
7046;DHT22;3564;53.326;10.356;2022-09-09T12:38:55;22.30;99.90
7046;DHT22;3564;53.326;10.356;2022-09-09T12:41:24;22.40;99.90
7046;DHT22;3564;53.326;10.356;2022-09-09T12:43:50;22.50;99.90
7046;DHT22;3564;53.326;10.356;2022-09-09T12:48:51;22.70;99.90
7046;DHT22;3564;53.326;10.356;2022-09-09T12:51:24;22.80;99.90
7046;DHT22;3564;53.326;10.356;2022-09-09T12:53:51;22.80;99.90
7046;DHT22;3564;53.326;10.356;2022-09-09T12:56:23;22.80;99.90
7046;DHT22;3564;53.326;10.356;2022-09-09T12:58:53;22.80;99.90
7046;DHT22;3564;53.326;10.356;2022-09-09T13:01:31;22.70;99.90
7046;DHT22;3564;53.326;10.356;2022-09-09T13:03:58;22.70;99.90
7046;DHT22;3564;53.326;10.356;2022-09-09T13:06:26;22.70;99.90
7046;DHT22;3564;53.326;10.356;2022-09-09T13:08:53;22.60;99.90
7046;DHT22;3564;53.326;10.356;2022-09-09T13:11:34;22.60;99.90
7046;DHT22;3564;53.326;10.356;2022-09-09T13:14:01;22.60;99.90
7046;DHT22;3564;53.326;10.356;2022-09-09T13:16:29;22.50;99.90
7046;DHT22;3564;53.326;10.356;2022-09-09T13:19:17;22.50;99.90
7046;DHT22;3564;53.326;10.356;2022-09-09T13:21:43;22.40;99.90
7046;DHT22;3564;53.326;10.356;2022-09-09T13:24:41;22.40;99.90
7046;DHT22;3564;53.326;10.356;2022-09-09T13:27:56;22.50;99.90
7046;DHT22;3564;53.326;10.356;2022-09-09T13:30:35;22.40;99.90
7046;DHT22;3564;53.326;10.356;2022-09-09T13:33:22;22.40;99.90
7046;DHT22;3564;53.326;10.356;2022-09-09T13:38:17;22.30;99.90
7046;DHT22;3564;53.326;10.356;2022-09-09T13:40:53;22.30;99.90
7046;DHT22;3564;53.326;10.356;2022-09-09T13:43:45;22.20;99.90
7046;DHT22;3564;53.326;10.356;2022-09-09T13:46:35;22.20;99.90
7046;DHT22;3564;53.326;10.356;2022-09-09T13:49:22;22.10;99.90
7046;DHT22;3564;53.326;10.356;2022-09-09T13:51:50;22.10;99.90
7046;DHT22;3564;53.326;10.356;2022-09-09T13:54:18;22.10;99.90
7046;DHT22;3564;53.326;10.356;2022-09-09T13:56:45;22.00;99.90
7046;DHT22;3564;53.326;10.356;2022-09-09T13:59:16;22.00;99.90
7046;DHT22;3564;53.326;10.356;2022-09-09T14:01:43;21.90;99.90
7046;DHT22;3564;53.326;10.356;2022-09-09T14:04:10;21.80;99.90
7046;DHT22;3564;53.326;10.356;2022-09-09T14:06:36;21.70;99.90
7046;DHT22;3564;53.326;10.356;2022-09-09T14:09:11;21.70;99.90
7046;DHT22;3564;53.326;10.356;2022-09-09T14:11:38;21.30;99.90
7046;DHT22;3564;53.326;10.356;2022-09-09T14:14:04;20.80;99.90
7046;DHT22;3564;53.326;10.356;2022-09-09T14:16:30;20.00;99.90
7046;DHT22;3564;53.326;10.356;2022-09-09T14:18:56;19.80;99.90
7046;DHT22;3564;53.326;10.356;2022-09-09T14:21:22;19.70;99.90
7046;DHT22;3564;53.326;10.356;2022-09-09T14:23:47;19.70;99.90
7046;DHT22;3564;53.326;10.356;2022-09-09T14:26:14;19.70;99.90
7046;DHT22;3564;53.326;10.356;2022-09-09T14:28:39;19.70;99.90
7046;DHT22;3564;53.326;10.356;2022-09-09T14:31:06;19.80;99.90
7046;DHT22;3564;53.326;10.356;2022-09-09T14:33:33;19.80;99.90
7046;DHT22;3564;53.326;10.356;2022-09-09T14:36:00;19.90;99.90
7046;DHT22;3564;53.326;10.356;2022-09-09T14:38:30;19.90;99.90
7046;DHT22;3564;53.326;10.356;2022-09-09T14:40:56;19.90;99.90
7046;DHT22;3564;53.326;10.356;2022-09-09T14:43:24;19.90;99.90
7046;DHT22;3564;53.326;10.356;2022-09-09T14:45:49;19.90;99.90
7046;DHT22;3564;53.326;10.356;2022-09-09T14:48:17;20.00;99.90
7046;DHT22;3564;53.326;10.356;2022-09-09T14:50:42;20.00;99.90
7046;DHT22;3564;53.326;10.356;2022-09-09T14:53:08;20.00;99.90
7046;DHT22;3564;53.326;10.356;2022-09-09T14:55:36;20.00;99.90
7046;DHT22;3564;53.326;10.356;2022-09-09T14:58:03;20.00;99.90
7046;DHT22;3564;53.326;10.356;2022-09-09T15:00:29;20.00;99.90
7046;DHT22;3564;53.326;10.356;2022-09-09T15:02:55;20.00;99.90
7046;DHT22;3564;53.326;10.356;2022-09-09T15:05:22;20.00;99.90
7046;DHT22;3564;53.326;10.356;2022-09-09T15:07:48;20.00;99.90
7046;DHT22;3564;53.326;10.356;2022-09-09T15:10:16;20.00;99.90
7046;DHT22;3564;53.326;10.356;2022-09-09T15:12:43;20.00;99.90
7046;DHT22;3564;53.326;10.356;2022-09-09T15:15:09;20.00;99.90
7046;DHT22;3564;53.326;10.356;2022-09-09T15:17:35;20.00;99.90
7046;DHT22;3564;53.326;10.356;2022-09-09T15:20:03;20.10;99.90
7046;DHT22;3564;53.326;10.356;2022-09-09T15:22:31;20.10;99.90
7046;DHT22;3564;53.326;10.356;2022-09-09T15:24:57;20.10;99.90
7046;DHT22;3564;53.326;10.356;2022-09-09T15:27:22;20.10;99.90
7046;DHT22;3564;53.326;10.356;2022-09-09T15:29:49;20.10;99.90
7046;DHT22;3564;53.326;10.356;2022-09-09T15:32:15;20.10;99.90
7046;DHT22;3564;53.326;10.356;2022-09-09T15:34:41;20.20;99.90
7046;DHT22;3564;53.326;10.356;2022-09-09T15:37:10;20.20;99.90
7046;DHT22;3564;53.326;10.356;2022-09-09T15:39:37;20.20;99.90
7046;DHT22;3564;53.326;10.356;2022-09-09T15:42:02;20.30;99.90
7046;DHT22;3564;53.326;10.356;2022-09-09T15:44:28;20.30;99.90
7046;DHT22;3564;53.326;10.356;2022-09-09T15:46:54;20.30;99.90
7046;DHT22;3564;53.326;10.356;2022-09-09T15:49:24;20.40;99.90
7046;DHT22;3564;53.326;10.356;2022-09-09T15:51:58;20.40;99.90
7046;DHT22;3564;53.326;10.356;2022-09-09T15:54:27;20.50;99.90
7046;DHT22;3564;53.326;10.356;2022-09-09T15:56:58;20.50;99.90
7046;DHT22;3564;53.326;10.356;2022-09-09T15:59:27;20.60;99.90
7046;DHT22;3564;53.326;10.356;2022-09-09T16:01:53;20.60;99.90
7046;DHT22;3564;53.326;10.356;2022-09-09T16:04:20;20.70;99.90
7046;DHT22;3564;53.326;10.356;2022-09-09T16:06:54;20.70;99.90
7046;DHT22;3564;53.326;10.356;2022-09-09T16:09:20;20.70;99.90
7046;DHT22;3564;53.326;10.356;2022-09-09T16:11:47;20.70;99.90
7046;DHT22;3564;53.326;10.356;2022-09-09T16:14:14;20.70;99.90
7046;DHT22;3564;53.326;10.356;2022-09-09T16:16:41;20.70;99.90
7046;DHT22;3564;53.326;10.356;2022-09-09T16:19:09;20.70;99.90
7046;DHT22;3564;53.326;10.356;2022-09-09T16:21:38;20.70;99.90
7046;DHT22;3564;53.326;10.356;2022-09-09T16:24:09;20.80;99.90
7046;DHT22;3564;53.326;10.356;2022-09-09T16:26:38;20.90;99.90
7046;DHT22;3564;53.326;10.356;2022-09-09T16:29:04;20.90;99.90
7046;DHT22;3564;53.326;10.356;2022-09-09T16:31:31;21.00;99.90
7046;DHT22;3564;53.326;10.356;2022-09-09T16:34:00;21.10;99.90
7046;DHT22;3564;53.326;10.356;2022-09-09T16:36:45;21.20;99.90
7046;DHT22;3564;53.326;10.356;2022-09-09T16:39:13;21.40;99.90
7046;DHT22;3564;53.326;10.356;2022-09-09T16:41:40;21.40;99.90
7046;DHT22;3564;53.326;10.356;2022-09-09T16:44:08;21.50;99.90
7046;DHT22;3564;53.326;10.356;2022-09-09T16:46:37;21.50;99.90
7046;DHT22;3564;53.326;10.356;2022-09-09T16:49:05;21.50;99.90
7046;DHT22;3564;53.326;10.356;2022-09-09T16:51:37;21.50;99.90
7046;DHT22;3564;53.326;10.356;2022-09-09T16:54:05;21.50;99.90
7046;DHT22;3564;53.326;10.356;2022-09-09T16:56:34;21.50;99.90
7046;DHT22;3564;53.326;10.356;2022-09-09T16:59:02;21.50;99.90
7046;DHT22;3564;53.326;10.356;2022-09-09T17:01:30;21.40;99.90
7046;DHT22;3564;53.326;10.356;2022-09-09T17:03:58;21.40;99.90
7046;DHT22;3564;53.326;10.356;2022-09-09T17:06:24;21.40;99.90
7046;DHT22;3564;53.326;10.356;2022-09-09T17:08:59;21.40;99.90
7046;DHT22;3564;53.326;10.356;2022-09-09T17:11:27;21.30;99.90
7046;DHT22;3564;53.326;10.356;2022-09-09T17:13:53;21.30;99.90
7046;DHT22;3564;53.326;10.356;2022-09-09T17:16:21;21.30;99.90
7046;DHT22;3564;53.326;10.356;2022-09-09T17:18:49;21.20;99.90
7046;DHT22;3564;53.326;10.356;2022-09-09T17:21:17;21.20;99.90
7046;DHT22;3564;53.326;10.356;2022-09-09T17:23:43;21.10;99.90
7046;DHT22;3564;53.326;10.356;2022-09-09T17:26:12;21.10;99.90
7046;DHT22;3564;53.326;10.356;2022-09-09T17:28:39;21.10;99.90
7046;DHT22;3564;53.326;10.356;2022-09-09T17:31:07;21.00;99.90
7046;DHT22;3564;53.326;10.356;2022-09-09T17:33:34;21.00;99.90
7046;DHT22;3564;53.326;10.356;2022-09-09T17:36:05;21.00;99.90
7046;DHT22;3564;53.326;10.356;2022-09-09T17:38:32;20.90;99.90
7046;DHT22;3564;53.326;10.356;2022-09-09T17:41:10;20.90;99.90
7046;DHT22;3564;53.326;10.356;2022-09-09T17:43:36;20.80;99.90
7046;DHT22;3564;53.326;10.356;2022-09-09T17:46:10;20.70;99.90
7046;DHT22;3564;53.326;10.356;2022-09-09T17:48:36;20.70;99.90
7046;DHT22;3564;53.326;10.356;2022-09-09T17:51:08;20.70;99.90
7046;DHT22;3564;53.326;10.356;2022-09-09T17:53:38;20.90;99.90
7046;DHT22;3564;53.326;10.356;2022-09-09T17:56:09;20.90;99.90
7046;DHT22;3564;53.326;10.356;2022-09-09T17:58:36;20.80;99.90